Main page
METAR-TAF:

METAR-TAF

Airports :

Al Hoceima, Morocco

Cherif Al Idrissi Airport

latitude: 35-11N, longitude: 003-51W, elevation: 27 m

Current weather observation

The report was made 1 hour and 4 minutes ago, at 01:00 UTC
Wind 6 kt from the Northwest
Temperature 21°C
Humidity 88%
Pressure 1017 hPa
Visibility: 6000 m
Scattered clouds at a height of 1000 ft
Broken clouds at a height of 3000 ft

METAR: GMTA 290100Z 32006KT 6000 SCT010 BKN030 21/19 Q1017 NOSIG

Time: 02:04 (02:04 UTC)

Forecast

The report was made 3 hours and 4 minutes ago, at 23:00 UTC
Forecast valid from 29 at 00 UTC to 30 at 06 UTC
Wind 2 kt from variable directions
Visibility: 6000 m
Scattered clouds at a height of 1000 ft
Broken clouds at a height of 2600 ft
Temporary
from 29 at 00 UTC to 29 at 06 UTC
Visibility: 4000 m
light drizzle
Temporary
from 29 at 11 UTC to 29 at 16 UTC
Wind 8 kt from the North/Northwest

TAF: GMTA 282300Z 2900/3006 VRB02KT 6000 SCT010 BKN026 TEMPO 2900/2906 4000 -DZ TEMPO 2911/2916 33008KT

Weather observations and forecasts of more than 4000 airports (METAR and TAF reports).

The available stations are represented by yellow and red dots on the map.

Hover mouse over dot to see the name of the station.

Then click to see weather observations and forecasts.

To change the map : click on the green buttons with a black cross to zoom in, on the green button with a dash to zoom out, or on the green arrows for adjacent maps.


METAR-TAF: